Time;durP1;ratioP1;P1;durP2;ratioP2;P2;SDS_P1;SDS_P2;PMS_P1;PMS_P2;Temp;Humidity;BMP_temperature;BMP_pressure;BME280_temperature;BME280_humidity;BME280_pressure;Samples;Min_cycle;Max_cycle;Signal;HPM_P1;HPM_P2
2020/12/04 00:00:21;;;;;;;;;;;5.40;99.90;;;;;;5055953;28;19920;-83
2020/12/04 00:02:47;;;;;;;;;;;5.40;99.90;;;;;;5042837;28;19939;-83
2020/12/04 00:05:12;;;;;;;;;;;5.40;99.90;;;;;;5040019;28;20369;-83
2020/12/04 00:07:37;;;;;;;;;;;5.50;99.90;;;;;;5058954;28;19909;-83
2020/12/04 00:10:03;;;;;;;;;;;5.50;99.90;;;;;;5059189;28;20007;-83
2020/12/04 00:12:29;;;;;;;;;;;5.50;99.90;;;;;;5039857;28;20393;-83
2020/12/04 00:14:54;;;;;;;;;;;5.50;99.90;;;;;;5039396;28;19909;-83
2020/12/04 00:17:19;;;;;;;;;;;5.50;99.90;;;;;;5041137;28;20008;-83
2020/12/04 00:19:45;;;;;;;;;;;5.50;99.90;;;;;;5039027;28;20293;-83
2020/12/04 00:22:13;;;;;;;;;;;5.50;99.90;;;;;;5050452;28;19912;-83
2020/12/04 00:24:38;;;;;;;;;;;5.50;99.90;;;;;;5075420;28;19916;-83
2020/12/04 00:27:04;;;;;;;;;;;5.50;99.90;;;;;;5059752;28;19916;-82
2020/12/04 00:29:29;;;;;;;;;;;5.50;99.90;;;;;;5057322;28;20396;-83
2020/12/04 00:31:55;;;;;;;;;;;5.50;99.90;;;;;;5055850;28;19909;-82
2020/12/04 00:34:21;;;;;;;;;;;5.50;99.90;;;;;;5059402;28;19913;-81
2020/12/04 00:36:47;;;;;;;;;;;5.50;99.90;;;;;;5059694;28;19912;-82
2020/12/04 00:39:13;;;;;;;;;;;5.60;99.90;;;;;;5060642;28;19909;-82
2020/12/04 00:41:38;;;;;;;;;;;5.60;99.90;;;;;;5042388;28;20223;-82
2020/12/04 00:44:04;;;;;;;;;;;5.60;99.90;;;;;;5061358;28;19909;-82
2020/12/04 00:46:29;;;;;;;;;;;5.60;99.90;;;;;;5047227;28;20011;-83
2020/12/04 00:48:55;;;;;;;;;;;5.60;99.90;;;;;;5023784;28;19910;-83
2020/12/04 00:51:20;;;;;;;;;;;5.60;99.90;;;;;;5044981;28;19940;-82
2020/12/04 00:53:46;;;;;;;;;;;5.60;99.90;;;;;;5023986;28;20480;-83
2020/12/04 00:56:11;;;;;;;;;;;5.60;99.90;;;;;;5050929;28;19995;-82
2020/12/04 00:58:40;;;;;;;;;;;5.60;99.90;;;;;;5060178;28;19931;-83
2020/12/04 01:01:05;;;;;;;;;;;5.60;99.90;;;;;;5049524;28;19917;-83
2020/12/04 01:03:30;;;;;;;;;;;5.60;99.90;;;;;;5040691;28;19933;-83
2020/12/04 01:05:56;;;;;;;;;;;5.60;99.90;;;;;;5048159;28;19948;-82
2020/12/04 01:08:21;;;;;;;;;;;5.60;99.90;;;;;;5060161;28;20379;-82
2020/12/04 01:10:47;;;;;;;;;;;5.60;99.90;;;;;;5056883;28;19924;-82
2020/12/04 01:13:13;;;;;;;;;;;5.60;99.90;;;;;;5060194;28;19913;-81
2020/12/04 01:15:38;;;;;;;;;;;5.60;99.90;;;;;;5056127;28;19920;-82
2020/12/04 01:18:04;;;;;;;;;;;5.60;99.90;;;;;;5060091;28;19909;-82
2020/12/04 01:20:29;;;;;;;;;;;5.60;99.90;;;;;;5058496;28;19940;-82
2020/12/04 01:22:55;;;;;;;;;;;5.50;99.90;;;;;;5059765;28;19967;-82
2020/12/04 01:25:20;;;;;;;;;;;5.50;99.90;;;;;;5047348;28;20600;-82
2020/12/04 01:27:46;;;;;;;;;;;5.50;99.90;;;;;;5059775;28;20011;-81
2020/12/04 01:30:11;;;;;;;;;;;5.40;99.90;;;;;;5059076;28;19917;-83
2020/12/04 01:32:37;;;;;;;;;;;5.40;99.90;;;;;;5041258;28;19965;-83
2020/12/04 01:35:02;;;;;;;;;;;5.40;99.90;;;;;;5025519;28;19924;-82
2020/12/04 01:37:28;;;;;;;;;;;5.40;99.90;;;;;;5039618;28;20354;-83
2020/12/04 01:39:54;;;;;;;;;;;5.30;99.90;;;;;;5052600;28;20292;-83
2020/12/04 01:42:20;;;;;;;;;;;5.30;99.90;;;;;;5049011;28;19923;-82
2020/12/04 01:44:45;;;;;;;;;;;5.30;99.90;;;;;;5045613;28;19913;-82
2020/12/04 01:47:11;;;;;;;;;;;5.30;99.90;;;;;;5039199;28;19932;-82
2020/12/04 01:49:36;;;;;;;;;;;5.30;99.90;;;;;;5046662;28;20000;-83
2020/12/04 01:52:02;;;;;;;;;;;5.30;99.90;;;;;;5041874;28;19912;-83
2020/12/04 01:54:27;;;;;;;;;;;5.20;99.90;;;;;;5039733;28;19956;-84
2020/12/04 01:56:52;;;;;;;;;;;5.20;99.90;;;;;;5059892;28;20368;-84
2020/12/04 01:59:18;;;;;;;;;;;5.20;99.90;;;;;;5052877;28;19913;-83
2020/12/04 02:01:44;;;;;;;;;;;5.10;99.90;;;;;;5039639;28;19916;-83
2020/12/04 02:04:10;;;;;;;;;;;5.00;99.90;;;;;;5037702;28;19960;-83
2020/12/04 02:06:42;;;;;;;;;;;5.00;99.90;;;;;;5060083;28;20348;-84
2020/12/04 02:09:09;;;;;;;;;;;4.90;99.90;;;;;;5044193;28;19917;-84
2020/12/04 02:11:35;;;;;;;;;;;4.90;99.90;;;;;;5059608;28;20289;-82
2020/12/04 02:14:01;;;;;;;;;;;4.80;99.90;;;;;;5041721;28;19925;-84
2020/12/04 02:16:26;;;;;;;;;;;4.80;99.90;;;;;;5039329;28;19912;-83
2020/12/04 02:18:52;;;;;;;;;;;4.70;99.90;;;;;;5043301;28;19920;-84
2020/12/04 02:21:18;;;;;;;;;;;4.70;99.90;;;;;;5039483;28;19929;-83
2020/12/04 02:23:44;;;;;;;;;;;4.70;99.90;;;;;;5054735;28;19975;-83
2020/12/04 02:26:10;;;;;;;;;;;4.60;99.90;;;;;;5058742;28;20020;-84
2020/12/04 02:28:37;;;;;;;;;;;4.60;99.90;;;;;;5059007;28;19913;-83
2020/12/04 02:31:03;;;;;;;;;;;4.60;99.90;;;;;;5059052;28;19959;-82
2020/12/04 02:33:28;;;;;;;;;;;4.50;99.90;;;;;;5058635;28;19935;-83
2020/12/04 02:35:54;;;;;;;;;;;4.50;99.90;;;;;;5058966;28;19913;-84
2020/12/04 02:38:21;;;;;;;;;;;4.50;99.90;;;;;;5027210;28;19913;-83
2020/12/04 02:40:46;;;;;;;;;;;4.50;99.90;;;;;;5055483;28;19936;-82
2020/12/04 02:43:11;;;;;;;;;;;4.50;99.90;;;;;;5046432;28;19955;-84
2020/12/04 02:45:37;;;;;;;;;;;4.50;99.90;;;;;;5052999;28;19935;-84
2020/12/04 02:48:03;;;;;;;;;;;4.50;99.90;;;;;;5040301;28;19915;-83
2020/12/04 02:50:28;;;;;;;;;;;4.50;99.90;;;;;;5058884;28;20024;-84
2020/12/04 02:52:53;;;;;;;;;;;4.50;99.90;;;;;;5058065;28;20483;-82
2020/12/04 02:55:19;;;;;;;;;;;4.50;99.90;;;;;;5057563;28;19917;-83
2020/12/04 02:57:44;;;;;;;;;;;4.50;99.90;;;;;;5052086;28;19919;-83
2020/12/04 03:00:10;;;;;;;;;;;4.50;99.90;;;;;;5047525;28;19940;-83
2020/12/04 03:02:35;;;;;;;;;;;4.50;99.90;;;;;;5053998;28;19916;-83
2020/12/04 03:05:01;;;;;;;;;;;4.50;99.90;;;;;;5045360;28;19975;-84
2020/12/04 03:07:26;;;;;;;;;;;4.50;99.90;;;;;;5056083;28;19955;-83
2020/12/04 03:09:52;;;;;;;;;;;4.50;99.90;;;;;;5044172;28;19923;-83
2020/12/04 03:12:17;;;;;;;;;;;4.50;99.90;;;;;;5059146;28;19972;-84
2020/12/04 03:14:42;;;;;;;;;;;4.50;99.90;;;;;;5055103;28;19913;-83
2020/12/04 03:17:08;;;;;;;;;;;4.50;99.90;;;;;;5038612;28;20392;-83
2020/12/04 03:19:33;;;;;;;;;;;4.50;99.90;;;;;;5039420;28;19920;-82
2020/12/04 03:21:59;;;;;;;;;;;4.50;99.90;;;;;;5021329;28;19936;-83
2020/12/04 03:24:24;;;;;;;;;;;4.60;99.90;;;;;;5055920;28;19940;-84
2020/12/04 03:26:50;;;;;;;;;;;4.40;99.90;;;;;;5058192;28;20300;-83
2020/12/04 03:29:15;;;;;;;;;;;4.60;99.90;;;;;;5039763;28;19958;-83
2020/12/04 03:31:41;;;;;;;;;;;4.60;99.90;;;;;;5040120;28;19913;-83
2020/12/04 03:34:06;;;;;;;;;;;4.60;99.90;;;;;;5040082;28;19932;-83
2020/12/04 03:36:32;;;;;;;;;;;4.60;99.90;;;;;;5040727;28;19912;-83
2020/12/04 03:38:57;;;;;;;;;;;4.60;99.90;;;;;;5058029;28;19956;-83
2020/12/04 03:41:23;;;;;;;;;;;4.60;99.90;;;;;;5060690;28;19931;-82
2020/12/04 03:43:48;;;;;;;;;;;4.60;99.90;;;;;;5042892;28;20016;-83
2020/12/04 03:46:14;;;;;;;;;;;4.60;99.90;;;;;;5046819;28;19924;-82
2020/12/04 03:48:40;;;;;;;;;;;4.60;99.90;;;;;;5066632;28;19912;-82
2020/12/04 03:51:05;;;;;;;;;;;4.60;99.90;;;;;;5070174;28;19925;-83
2020/12/04 03:53:31;;;;;;;;;;;4.60;99.90;;;;;;5045298;28;19913;-83
2020/12/04 03:55:56;;;;;;;;;;;4.60;99.90;;;;;;5020548;28;20027;-84
2020/12/04 03:58:22;;;;;;;;;;;4.60;99.90;;;;;;5037438;28;19916;-82
2020/12/04 04:00:47;;;;;;;;;;;4.60;99.90;;;;;;5033792;28;19955;-82
2020/12/04 04:03:13;;;;;;;;;;;4.60;99.90;;;;;;5047633;28;19913;-83
2020/12/04 04:05:39;;;;;;;;;;;4.60;99.90;;;;;;5049073;28;20296;-83
2020/12/04 04:08:04;;;;;;;;;;;4.60;99.90;;;;;;5056845;28;19919;-81
2020/12/04 04:10:30;;;;;;;;;;;4.60;99.90;;;;;;5060371;28;19917;-82
2020/12/04 04:12:58;;;;;;;;;;;4.60;99.90;;;;;;5060196;28;19966;-83
2020/12/04 04:15:24;;;;;;;;;;;5.50;99.90;;;;;;5043660;28;19915;-83
2020/12/04 04:17:49;;;;;;;;;;;4.60;99.90;;;;;;5061446;28;19916;-84
2020/12/04 04:20:14;;;;;;;;;;;4.60;99.90;;;;;;5061382;28;19975;-83
2020/12/04 04:22:40;;;;;;;;;;;4.60;99.90;;;;;;5042873;28;19912;-83
2020/12/04 04:25:05;;;;;;;;;;;4.60;99.90;;;;;;5061415;28;19908;-83
2020/12/04 04:27:31;;;;;;;;;;;4.60;99.90;;;;;;5060497;28;20361;-83
2020/12/04 04:29:56;;;;;;;;;;;4.60;99.90;;;;;;5060867;28;20031;-84
2020/12/04 04:32:22;;;;;;;;;;;4.60;99.90;;;;;;5061305;28;19916;-83
2020/12/04 04:34:47;;;;;;;;;;;4.60;99.90;;;;;;5044591;28;19958;-84
2020/12/04 04:37:13;;;;;;;;;;;4.70;99.90;;;;;;5041599;28;19909;-83
2020/12/04 04:39:38;;;;;;;;;;;4.70;99.90;;;;;;5041881;28;19919;-83
2020/12/04 04:42:04;;;;;;;;;;;4.70;99.90;;;;;;5055967;28;20381;-83
2020/12/04 04:44:29;;;;;;;;;;;4.70;99.90;;;;;;5060249;28;19920;-82
2020/12/04 04:47:05;;;;;;;;;;;4.70;99.90;;;;;;5046893;28;20453;-82
2020/12/04 04:49:35;;;;;;;;;;;4.80;99.90;;;;;;5023266;28;19913;-82
2020/12/04 04:52:01;;;;;;;;;;;4.80;99.90;;;;;;5053496;28;19920;-82
2020/12/04 04:54:27;;;;;;;;;;;4.80;99.90;;;;;;5039835;28;20202;-83
2020/12/04 04:56:52;;;;;;;;;;;4.90;99.90;;;;;;5022627;28;19914;-84
2020/12/04 04:59:19;;;;;;;;;;;4.80;99.90;;;;;;5059935;28;19909;-85
2020/12/04 05:01:45;;;;;;;;;;;4.80;99.90;;;;;;5052065;28;19940;-86
2020/12/04 05:04:11;;;;;;;;;;;4.90;99.90;;;;;;5056414;28;20339;-83
2020/12/04 05:06:37;;;;;;;;;;;4.90;99.90;;;;;;5049831;28;19964;-85
2020/12/04 05:09:06;;;;;;;;;;;4.90;99.90;;;;;;5058283;28;19916;-84
2020/12/04 05:11:32;;;;;;;;;;;4.90;99.90;;;;;;5042014;28;19917;-83
2020/12/04 05:14:13;;;;;;;;;;;4.90;99.90;;;;;;5045664;28;19924;-84
2020/12/04 05:16:39;;;;;;;;;;;5.00;99.90;;;;;;5047621;28;19913;-84
2020/12/04 05:19:05;;;;;;;;;;;5.00;99.90;;;;;;5059121;28;19921;-84
2020/12/04 05:21:31;;;;;;;;;;;5.00;99.90;;;;;;5059092;28;19916;-84
2020/12/04 05:23:57;;;;;;;;;;;5.10;99.90;;;;;;5059778;28;19916;-83
2020/12/04 05:26:31;;;;;;;;;;;5.10;99.90;;;;;;5041591;28;20368;-84
2020/12/04 05:28:57;;;;;;;;;;;5.20;99.90;;;;;;5060675;28;20335;-85
2020/12/04 05:31:27;;;;;;;;;;;5.20;99.90;;;;;;5038700;28;19959;-82
2020/12/04 05:33:53;;;;;;;;;;;5.30;99.90;;;;;;5040426;28;19920;-82
2020/12/04 05:36:25;;;;;;;;;;;5.30;99.90;;;;;;5042773;28;19920;-83
2020/12/04 05:38:51;;;;;;;;;;;5.30;99.90;;;;;;5060332;28;19912;-84
2020/12/04 05:41:17;;;;;;;;;;;5.30;99.90;;;;;;5060319;28;19908;-85
2020/12/04 05:43:42;;;;;;;;;;;5.30;99.90;;;;;;5060340;28;20238;-85
2020/12/04 05:46:37;;;;;;;;;;;5.30;99.90;;;;;;5056978;28;19913;-84
2020/12/04 05:49:04;;;;;;;;;;;5.30;99.90;;;;;;5033564;28;19909;-82
2020/12/04 05:51:31;;;;;;;;;;;5.40;99.90;;;;;;5047146;28;20020;-83
2020/12/04 05:53:57;;;;;;;;;;;5.40;99.90;;;;;;5073417;28;19908;-84
2020/12/04 05:56:23;;;;;;;;;;;5.40;99.90;;;;;;5068041;28;19932;-84
2020/12/04 05:58:49;;;;;;;;;;;5.40;99.90;;;;;;5056691;28;19917;-84
2020/12/04 06:01:18;;;;;;;;;;;5.40;99.90;;;;;;5059248;28;19960;-84
2020/12/04 06:03:51;;;;;;;;;;;5.40;99.90;;;;;;5060026;28;19913;-84
2020/12/04 06:06:23;;;;;;;;;;;5.40;99.90;;;;;;5059816;28;19919;-84
2020/12/04 06:08:48;;;;;;;;;;;5.40;99.90;;;;;;5060204;28;20004;-82
2020/12/04 06:11:14;;;;;;;;;;;5.40;99.90;;;;;;5057511;28;19994;-83
2020/12/04 06:13:39;;;;;;;;;;;5.30;99.90;;;;;;5050741;28;20296;-82
2020/12/04 06:16:12;;;;;;;;;;;5.40;99.90;;;;;;5050072;28;19919;-84
2020/12/04 06:18:39;;;;;;;;;;;5.40;99.90;;;;;;5039496;28;19909;-82
2020/12/04 06:21:04;;;;;;;;;;;5.40;99.90;;;;;;5052932;28;19924;-83
2020/12/04 06:23:30;;;;;;;;;;;5.40;99.90;;;;;;5040200;28;19999;-82
2020/12/04 06:26:00;;;;;;;;;;;5.40;99.90;;;;;;5057070;28;19917;-82
2020/12/04 06:28:26;;;;;;;;;;;5.30;99.90;;;;;;5058437;28;19909;-83
2020/12/04 06:30:59;;;;;;;;;;;5.30;99.90;;;;;;5056198;28;20273;-83
2020/12/04 06:33:37;;;;;;;;;;;5.30;99.90;;;;;;5039666;28;19909;-83
2020/12/04 06:36:03;;;;;;;;;;;5.30;99.90;;;;;;5052046;28;19909;-82
2020/12/04 06:38:38;;;;;;;;;;;5.40;99.90;;;;;;5040105;28;19910;-83
2020/12/04 06:41:22;;;;;;;;;;;5.40;99.90;;;;;;5052637;28;19959;-82
2020/12/04 06:43:51;;;;;;;;;;;5.40;99.90;;;;;;5039842;28;19916;-83
2020/12/04 06:46:26;;;;;;;;;;;5.60;99.90;;;;;;5040387;28;20385;-83
2020/12/04 06:49:11;;;;;;;;;;;5.60;99.90;;;;;;5044568;28;20020;-83
2020/12/04 06:51:37;;;;;;;;;;;5.60;99.90;;;;;;5059759;28;19919;-83
2020/12/04 06:54:03;;;;;;;;;;;5.70;99.90;;;;;;5059630;28;19962;-84
2020/12/04 06:56:29;;;;;;;;;;;5.80;99.90;;;;;;5043043;28;19913;-84
2020/12/04 06:58:54;;;;;;;;;;;5.80;99.90;;;;;;5043381;28;19920;-83
2020/12/04 07:01:20;;;;;;;;;;;5.90;99.90;;;;;;5041565;28;19913;-84
2020/12/04 07:03:45;;;;;;;;;;;6.00;99.90;;;;;;5055517;28;20007;-83
2020/12/04 07:06:11;;;;;;;;;;;6.10;99.90;;;;;;5060533;28;19939;-84
2020/12/04 07:08:37;;;;;;;;;;;6.10;99.90;;;;;;5060737;28;20351;-84
2020/12/04 07:11:03;;;;;;;;;;;6.10;99.90;;;;;;5051897;28;19917;-84
2020/12/04 07:13:28;;;;;;;;;;;6.10;99.90;;;;;;5037996;28;19928;-83
2020/12/04 07:16:00;;;;;;;;;;;6.10;99.90;;;;;;5045798;28;19947;-83
2020/12/04 07:18:29;;;;;;;;;;;6.10;99.90;;;;;;5041396;28;19913;-83
2020/12/04 07:20:55;;;;;;;;;;;6.10;99.90;;;;;;5051548;28;19913;-84
2020/12/04 07:23:21;;;;;;;;;;;6.20;99.90;;;;;;5051601;28;19980;-83
2020/12/04 07:25:49;;;;;;;;;;;6.20;99.90;;;;;;5057805;28;19924;-84
2020/12/04 07:28:15;;;;;;;;;;;6.20;99.90;;;;;;5047036;28;19939;-83
2020/12/04 07:30:42;;;;;;;;;;;6.20;99.90;;;;;;5057980;28;20353;-84
2020/12/04 07:33:08;;;;;;;;;;;6.30;99.90;;;;;;5057748;28;19920;-83
2020/12/04 07:35:33;;;;;;;;;;;6.30;99.90;;;;;;5053366;28;19913;-83
2020/12/04 07:38:05;;;;;;;;;;;6.40;99.90;;;;;;5042567;28;19916;-83
2020/12/04 07:40:31;;;;;;;;;;;6.50;99.90;;;;;;5036091;28;19940;-84
2020/12/04 07:42:56;;;;;;;;;;;6.50;99.90;;;;;;5025227;28;19917;-83
2020/12/04 07:45:22;;;;;;;;;;;6.60;99.90;;;;;;5061391;28;19916;-83
2020/12/04 07:47:47;;;;;;;;;;;6.60;99.90;;;;;;5052333;28;19920;-83
2020/12/04 07:50:13;;;;;;;;;;;6.60;99.90;;;;;;5049510;28;19921;-81
2020/12/04 07:52:50;;;;;;;;;;;6.70;99.90;;;;;;5057964;28;20021;-83
2020/12/04 07:55:16;;;;;;;;;;;6.80;99.90;;;;;;5046001;28;19919;-83
2020/12/04 07:57:41;;;;;;;;;;;6.70;99.90;;;;;;5055635;28;20365;-83
2020/12/04 08:00:07;;;;;;;;;;;6.70;99.90;;;;;;5044536;28;20328;-83
2020/12/04 08:02:33;;;;;;;;;;;6.80;99.90;;;;;;5041222;28;19934;-83
2020/12/04 08:04:58;;;;;;;;;;;6.80;99.90;;;;;;5058586;28;19912;-83
2020/12/04 08:07:27;;;;;;;;;;;6.80;99.90;;;;;;5059266;28;19943;-83
2020/12/04 08:09:53;;;;;;;;;;;6.90;99.90;;;;;;5036303;28;19917;-83
2020/12/04 08:12:21;;;;;;;;;;;7.00;99.90;;;;;;5051279;28;20028;-83
2020/12/04 08:14:50;;;;;;;;;;;7.00;99.90;;;;;;5025248;28;20317;-83
2020/12/04 08:17:23;;;;;;;;;;;7.00;99.90;;;;;;5059089;28;20223;-82
2020/12/04 08:19:49;;;;;;;;;;;7.10;99.90;;;;;;5046332;28;19924;-83
2020/12/04 08:22:15;;;;;;;;;;;7.20;99.90;;;;;;5053031;28;19912;-83
2020/12/04 08:24:51;;;;;;;;;;;7.20;99.90;;;;;;5049105;28;20102;-82
2020/12/04 08:27:17;;;;;;;;;;;7.30;99.90;;;;;;5046071;28;19935;-82
2020/12/04 08:30:01;;;;;;;;;;;7.30;99.90;;;;;;5046337;28;19924;-83
2020/12/04 08:32:27;;;;;;;;;;;7.30;99.90;;;;;;5038409;28;19948;-83
2020/12/04 08:35:05;;;;;;;;;;;7.30;99.90;;;;;;5044658;28;19916;-84
2020/12/04 08:37:31;;;;;;;;;;;7.30;99.90;;;;;;5047493;28;19913;-85
2020/12/04 08:39:56;;;;;;;;;;;7.40;99.90;;;;;;5059218;28;19924;-84
2020/12/04 08:42:23;;;;;;;;;;;8.30;99.90;;;;;;5037478;28;19913;-86
2020/12/04 08:44:59;;;;;;;;;;;7.60;99.90;;;;;;5061086;28;19909;-84
2020/12/04 08:47:28;;;;;;;;;;;7.80;99.90;;;;;;5035964;28;19913;-85
2020/12/04 08:49:54;;;;;;;;;;;7.90;99.90;;;;;;5060044;28;20011;-85
2020/12/04 08:52:36;;;;;;;;;;;8.10;99.90;;;;;;5040464;28;19944;-85
2020/12/04 08:55:08;;;;;;;;;;;8.20;99.90;;;;;;5049393;28;19948;-85
2020/12/04 08:57:34;;;;;;;;;;;8.30;99.90;;;;;;5030441;28;19917;-84
2020/12/04 08:59:59;;;;;;;;;;;8.60;99.90;;;;;;5058732;28;19947;-86
2020/12/04 09:02:25;;;;;;;;;;;8.70;99.90;;;;;;5051840;28;20248;-86
2020/12/04 09:04:50;;;;;;;;;;;8.90;99.90;;;;;;5060966;28;19913;-86
2020/12/04 09:07:16;;;;;;;;;;;9.20;99.90;;;;;;5065987;28;19908;-86
2020/12/04 09:09:41;;;;;;;;;;;9.30;99.90;;;;;;5050496;28;19916;-85
2020/12/04 09:12:07;;;;;;;;;;;9.40;99.90;;;;;;5055701;28;19913;-85
2020/12/04 09:14:32;;;;;;;;;;;9.50;99.90;;;;;;5053685;28;19909;-85
2020/12/04 09:16:57;;;;;;;;;;;9.70;99.90;;;;;;5047843;28;19925;-85
2020/12/04 09:19:23;;;;;;;;;;;9.80;99.90;;;;;;5062139;28;19996;-85
2020/12/04 09:21:48;;;;;;;;;;;9.70;99.90;;;;;;5065636;28;19916;-86
2020/12/04 09:24:14;;;;;;;;;;;9.70;99.90;;;;;;5065795;28;19915;-85
2020/12/04 09:26:39;;;;;;;;;;;9.80;99.90;;;;;;5056814;28;19914;-85
2020/12/04 09:29:05;;;;;;;;;;;10.00;99.90;;;;;;5037648;28;19916;-86
2020/12/04 09:31:33;;;;;;;;;;;10.20;99.90;;;;;;5062615;28;19972;-85
2020/12/04 09:33:58;;;;;;;;;;;10.60;99.90;;;;;;5064531;28;20265;-86
2020/12/04 09:36:24;;;;;;;;;;;11.10;99.90;;;;;;5067226;28;19936;-85
2020/12/04 09:38:49;;;;;;;;;;;11.30;99.90;;;;;;5062884;28;19921;-85
2020/12/04 09:41:15;;;;;;;;;;;11.20;99.90;;;;;;5030544;28;19913;-86
2020/12/04 09:43:40;;;;;;;;;;;11.00;99.90;;;;;;5055542;28;19913;-85
2020/12/04 09:46:06;;;;;;;;;;;10.80;99.90;;;;;;5056904;28;19913;-86
2020/12/04 09:48:31;;;;;;;;;;;10.70;99.90;;;;;;5051162;28;19913;-85
2020/12/04 09:50:57;;;;;;;;;;;10.70;99.90;;;;;;5065330;28;19942;-85
2020/12/04 09:53:22;;;;;;;;;;;10.80;99.90;;;;;;5052313;28;19920;-85
2020/12/04 09:55:48;;;;;;;;;;;10.80;99.90;;;;;;5067621;28;19923;-85
2020/12/04 09:58:13;;;;;;;;;;;11.00;99.90;;;;;;5055845;28;19919;-84
2020/12/04 10:00:39;;;;;;;;;;;11.40;99.90;;;;;;5061779;28;19916;-85
2020/12/04 10:03:04;;;;;;;;;;;11.70;99.90;;;;;;5065295;28;19912;-85
2020/12/04 10:05:29;;;;;;;;;;;11.80;99.90;;;;;;5040374;28;19909;-85
2020/12/04 10:07:55;;;;;;;;;;;11.80;99.90;;;;;;5064388;28;19940;-85
2020/12/04 10:10:20;;;;;;;;;;;11.70;99.90;;;;;;5067693;28;19948;-85
2020/12/04 10:12:46;;;;;;;;;;;11.70;99.90;;;;;;5066201;28;19913;-84
2020/12/04 10:15:12;;;;;;;;;;;11.50;99.90;;;;;;5062210;28;20368;-85
2020/12/04 10:17:37;;;;;;;;;;;11.20;99.90;;;;;;5060377;28;19920;-84
2020/12/04 10:20:03;;;;;;;;;;;11.00;99.90;;;;;;5045946;28;19983;-85
2020/12/04 10:22:28;;;;;;;;;;;11.00;99.90;;;;;;5049872;28;20027;-85
2020/12/04 10:24:53;;;;;;;;;;;10.90;99.90;;;;;;5049315;28;19913;-85
2020/12/04 10:27:21;;;;;;;;;;;10.80;99.90;;;;;;5053708;28;19964;-85
2020/12/04 10:29:47;;;;;;;;;;;10.70;99.90;;;;;;5052756;28;19916;-83
2020/12/04 10:32:12;;;;;;;;;;;10.60;99.90;;;;;;5040424;28;19913;-84
2020/12/04 10:34:38;;;;;;;;;;;10.50;99.90;;;;;;5038733;28;19913;-85
2020/12/04 10:37:03;;;;;;;;;;;10.40;99.90;;;;;;5056875;28;19936;-85
2020/12/04 10:39:29;;;;;;;;;;;10.40;99.90;;;;;;5076882;28;19913;-84
2020/12/04 10:41:54;;;;;;;;;;;10.50;99.90;;;;;;5074340;28;19979;-84
2020/12/04 10:44:20;;;;;;;;;;;10.80;99.90;;;;;;5063819;28;19919;-85
2020/12/04 10:46:45;;;;;;;;;;;10.80;99.90;;;;;;5053596;28;20008;-86
2020/12/04 10:49:11;;;;;;;;;;;11.00;99.90;;;;;;5059886;28;19944;-86
2020/12/04 10:51:36;;;;;;;;;;;11.20;99.90;;;;;;5064198;28;20376;-83
2020/12/04 10:54:03;;;;;;;;;;;11.50;99.90;;;;;;5052833;28;19955;-85
2020/12/04 10:56:28;;;;;;;;;;;11.40;99.90;;;;;;5057476;28;19980;-85
2020/12/04 10:58:54;;;;;;;;;;;11.40;99.90;;;;;;5053164;28;19963;-84
2020/12/04 11:01:27;;;;;;;;;;;11.10;99.90;;;;;;5049139;28;19919;-85
2020/12/04 11:06:21;;;;;;;;;;;10.90;99.90;;;;;;5057842;28;19917;-85
2020/12/04 11:08:47;;;;;;;;;;;11.00;99.90;;;;;;5058784;28;19970;-85
2020/12/04 11:11:13;;;;;;;;;;;10.80;99.90;;;;;;5063075;28;19913;-84
2020/12/04 11:13:38;;;;;;;;;;;10.60;99.90;;;;;;5061937;28;19917;-85
2020/12/04 11:16:04;;;;;;;;;;;10.50;99.90;;;;;;5043614;28;19920;-85
2020/12/04 11:18:29;;;;;;;;;;;10.30;99.90;;;;;;5061474;28;20007;-84
2020/12/04 11:20:55;;;;;;;;;;;10.30;99.90;;;;;;5062506;28;20353;-84
2020/12/04 11:23:20;;;;;;;;;;;10.50;99.90;;;;;;5053412;28;19913;-84
2020/12/04 11:25:46;;;;;;;;;;;10.60;99.90;;;;;;5053463;28;19944;-85
2020/12/04 11:28:11;;;;;;;;;;;10.90;99.90;;;;;;5040095;28;19913;-85
2020/12/04 11:30:36;;;;;;;;;;;11.30;99.90;;;;;;5060390;28;20003;-85
2020/12/04 11:33:02;;;;;;;;;;;11.50;99.90;;;;;;5054788;28;19914;-85
2020/12/04 11:35:27;;;;;;;;;;;11.70;99.90;;;;;;5025357;28;19913;-85
2020/12/04 11:37:57;;;;;;;;;;;11.90;99.90;;;;;;5044574;28;20451;-84
2020/12/04 11:40:23;;;;;;;;;;;11.80;99.90;;;;;;5062078;28;19917;-85
2020/12/04 11:42:48;;;;;;;;;;;11.80;99.90;;;;;;5060606;28;20381;-84
2020/12/04 11:45:15;;;;;;;;;;;11.80;99.90;;;;;;5041837;28;19916;-85
2020/12/04 11:47:41;;;;;;;;;;;11.90;99.90;;;;;;5057592;28;19960;-85
2020/12/04 11:50:07;;;;;;;;;;;11.90;99.90;;;;;;5061547;28;19920;-84
2020/12/04 11:52:33;;;;;;;;;;;11.80;99.90;;;;;;5045904;28;19919;-84
2020/12/04 11:54:58;;;;;;;;;;;11.60;99.90;;;;;;5057822;28;19960;-84
2020/12/04 11:57:24;;;;;;;;;;;11.50;99.90;;;;;;5048247;28;19920;-85
2020/12/04 11:59:49;;;;;;;;;;;11.60;99.90;;;;;;5062918;28;20262;-85
2020/12/04 12:02:15;;;;;;;;;;;11.90;99.90;;;;;;5041760;28;19959;-85
2020/12/04 12:04:40;;;;;;;;;;;12.00;99.90;;;;;;5055369;28;19943;-85
2020/12/04 12:07:06;;;;;;;;;;;12.00;99.90;;;;;;5052882;28;19953;-85
2020/12/04 12:09:31;;;;;;;;;;;12.10;99.90;;;;;;5052109;28;19923;-85
2020/12/04 12:11:57;;;;;;;;;;;12.20;99.90;;;;;;5056376;28;20003;-85
2020/12/04 12:14:22;;;;;;;;;;;12.20;99.90;;;;;;5041070;28;20490;-85
2020/12/04 12:16:48;;;;;;;;;;;12.10;99.90;;;;;;5047538;28;19921;-84
2020/12/04 12:19:14;;;;;;;;;;;12.40;99.90;;;;;;5052760;28;19916;-85
2020/12/04 12:21:44;;;;;;;;;;;12.30;99.90;;;;;;5023503;28;19980;-85
2020/12/04 12:24:10;;;;;;;;;;;12.20;99.90;;;;;;5048148;28;19905;-84
2020/12/04 12:26:35;;;;;;;;;;;12.10;99.90;;;;;;5058200;28;19921;-84
2020/12/04 12:29:01;;;;;;;;;;;12.10;99.90;;;;;;5047472;28;19909;-85
2020/12/04 12:31:27;;;;;;;;;;;11.90;99.90;;;;;;5064765;28;19924;-85
2020/12/04 12:33:52;;;;;;;;;;;11.80;99.90;;;;;;5053791;28;19913;-85
2020/12/04 12:36:18;;;;;;;;;;;11.70;99.90;;;;;;5047099;28;19919;-85
2020/12/04 12:38:43;;;;;;;;;;;11.70;99.90;;;;;;5045440;28;19913;-85
2020/12/04 12:41:09;;;;;;;;;;;11.70;99.90;;;;;;5046483;28;19963;-84
2020/12/04 12:43:35;;;;;;;;;;;11.80;99.90;;;;;;5066050;28;20393;-84
2020/12/04 12:46:01;;;;;;;;;;;12.10;99.90;;;;;;5064324;28;19921;-85
2020/12/04 12:48:26;;;;;;;;;;;12.60;99.90;;;;;;5058611;28;19913;-85
2020/12/04 12:50:54;;;;;;;;;;;13.40;99.90;;;;;;5047354;28;19967;-84
2020/12/04 12:53:19;;;;;;;;;;;14.00;99.90;;;;;;5030286;28;19919;-85
2020/12/04 12:55:45;;;;;;;;;;;14.60;99.90;;;;;;5049660;28;20353;-85
2020/12/04 12:58:10;;;;;;;;;;;14.80;99.90;;;;;;5060448;28;19913;-84
2020/12/04 13:00:35;;;;;;;;;;;14.90;99.90;;;;;;5064110;28;19913;-84
2020/12/04 13:03:01;;;;;;;;;;;14.90;99.90;;;;;;5060464;28;19920;-84
2020/12/04 13:08:05;;;;;;;;;;;14.10;99.90;;;;;;5077142;28;19966;-84
2020/12/04 13:10:31;;;;;;;;;;;13.60;99.90;;;;;;5065350;28;19917;-84
2020/12/04 13:12:56;;;;;;;;;;;13.10;99.90;;;;;;5065989;28;19930;-84
2020/12/04 13:15:23;;;;;;;;;;;12.80;99.90;;;;;;5057948;28;19920;-85
2020/12/04 13:17:49;;;;;;;;;;;12.50;99.90;;;;;;5050473;28;19917;-85
2020/12/04 13:20:14;;;;;;;;;;;12.20;99.90;;;;;;5065495;28;19909;-84
2020/12/04 13:22:40;;;;;;;;;;;12.00;99.90;;;;;;5058010;28;19917;-84
2020/12/04 13:25:06;;;;;;;;;;;11.80;99.90;;;;;;5054455;28;19958;-84
2020/12/04 13:27:32;;;;;;;;;;;11.60;99.90;;;;;;5069569;28;19912;-84
2020/12/04 13:29:57;;;;;;;;;;;11.50;99.90;;;;;;5070152;28;19913;-84
2020/12/04 13:32:22;;;;;;;;;;;11.40;99.90;;;;;;5062955;28;19920;-85
2020/12/04 13:34:48;;;;;;;;;;;11.20;99.90;;;;;;5045258;28;19910;-84
2020/12/04 13:37:13;;;;;;;;;;;11.10;99.90;;;;;;5054668;28;19913;-85
2020/12/04 13:39:39;;;;;;;;;;;11.00;99.90;;;;;;5063975;28;19908;-85
2020/12/04 13:42:04;;;;;;;;;;;10.90;99.90;;;;;;5062524;28;19959;-84
2020/12/04 13:44:30;;;;;;;;;;;10.80;99.90;;;;;;5061253;28;20293;-85
2020/12/04 13:46:55;;;;;;;;;;;10.70;99.90;;;;;;5055548;28;19913;-84
2020/12/04 13:49:22;;;;;;;;;;;10.60;99.90;;;;;;5042587;28;19910;-85
2020/12/04 13:51:48;;;;;;;;;;;10.60;99.90;;;;;;5046639;28;19917;-85
2020/12/04 13:54:14;;;;;;;;;;;10.40;99.90;;;;;;5062631;28;19909;-85
2020/12/04 13:56:40;;;;;;;;;;;10.30;99.90;;;;;;5058888;28;19941;-84
2020/12/04 13:59:06;;;;;;;;;;;10.30;99.90;;;;;;5042711;28;20007;-84
2020/12/04 14:01:34;;;;;;;;;;;10.20;99.90;;;;;;5048236;28;19910;-84
2020/12/04 14:04:00;;;;;;;;;;;10.20;99.90;;;;;;5058261;28;19909;-84
2020/12/04 14:06:26;;;;;;;;;;;10.10;99.90;;;;;;5071655;28;19916;-84
2020/12/04 14:08:51;;;;;;;;;;;10.00;99.90;;;;;;5024699;28;19986;-84
2020/12/04 14:11:17;;;;;;;;;;;9.90;99.90;;;;;;5049732;28;19925;-84
2020/12/04 14:13:43;;;;;;;;;;;9.90;99.90;;;;;;5056840;28;19909;-84
2020/12/04 14:16:09;;;;;;;;;;;9.80;99.90;;;;;;5046691;28;19978;-85
2020/12/04 14:18:36;;;;;;;;;;;9.80;99.90;;;;;;5053815;28;19908;-85
2020/12/04 14:21:03;;;;;;;;;;;9.80;99.90;;;;;;5065721;28;19947;-85
2020/12/04 14:23:29;;;;;;;;;;;9.60;99.90;;;;;;5050875;28;19917;-85
2020/12/04 14:25:54;;;;;;;;;;;9.70;99.90;;;;;;5042672;28;19916;-85